KLCQ

Lake City Gateway Airport

Lake City, Florida, USA
METAR KLCQ 230455Z AUTO 05004KT 10SM CLR 16/15 A3016 RMK AO2
Observed Flight Rules
Oct-23 @ 04:55 UTC (21 minutes ago) Visual Flight Rules
Wind Visibility Clouds
50° at 4 knots 10 miles
  • Clear skies
Temperatures Readings
Current 16°C / 61°F
Dewpoint 15°C / 59°F
Humidity 94%
Altimeter 30.16" Hg
Pressure 1021 hPa
Elevation 61
METAR KLCQ 230455Z AUTO 05004KT 10SM CLR 16/15 A3016 RMK AO2
Observed Flight Rules
Oct-23 @ 04:55 UTC
(21 minutes ago)
VFR
Wind Visibility
50° at 4 knots 10 miles
Clouds
  • Clear skies
Temperature Dewpoint
16°C / 61°F 15°C / 59°F
Humidity Altimeter Pressure
94% 30.16" Hg 1021 hPa